Terminal Aerodrome Forecast
Issued by NWS Raleigh/Durham, NC

Home | Current Version | Previous Version | Text Only | Print | Product List | Glossary On
Versions: 1 2 3 4 5 6 7 8 9 10 11 12 13 14 15 16 17 18 19 20 21 22 23 24 25 26 27 28 29 30 31 32 33 34 35 36 37 38 39
000
FTUS42 KRAH 261859 AAB
TAFRDU
TAF AMD
KRDU 261859Z 2619/2718 01010KT P6SM BKN035
     FM262100 01011G20KT P6SM SCT030
     FM262300 02009KT P6SM SCT015
     FM270500 01006KT P6SM BKN015
     FM270700 01006KT P6SM BKN010
     FM271200 34007KT P6SM SCT010
     FM271500 36011KT P6SM FEW110=

USA.gov is the U.S. government's official web portal to all federal, state and local government web resources and services.